sensor_id;sensor_type;location;lat;lon;timestamp;P1;durP1;ratioP1;P2;durP2;ratioP2
57333;SDS011;43165;50.998;18.164;2022-09-25T00:00:55;55.30;;;36.80;;
57333;SDS011;43165;50.998;18.164;2022-09-25T00:03:22;48.60;;;35.10;;
57333;SDS011;43165;50.998;18.164;2022-09-25T00:05:49;45.60;;;34.90;;
57333;SDS011;43165;50.998;18.164;2022-09-25T00:08:16;49.60;;;34.40;;
57333;SDS011;43165;50.998;18.164;2022-09-25T00:10:43;50.80;;;34.40;;
57333;SDS011;43165;50.998;18.164;2022-09-25T00:13:10;42.90;;;33.40;;
57333;SDS011;43165;50.998;18.164;2022-09-25T00:15:36;54.80;;;35.00;;
57333;SDS011;43165;50.998;18.164;2022-09-25T00:18:02;50.20;;;35.70;;
57333;SDS011;43165;50.998;18.164;2022-09-25T00:20:28;52.90;;;36.10;;
57333;SDS011;43165;50.998;18.164;2022-09-25T00:22:54;51.30;;;35.40;;
57333;SDS011;43165;50.998;18.164;2022-09-25T00:25:20;55.20;;;36.40;;
57333;SDS011;43165;50.998;18.164;2022-09-25T00:27:46;51.80;;;36.80;;
57333;SDS011;43165;50.998;18.164;2022-09-25T00:30:14;49.80;;;36.00;;
57333;SDS011;43165;50.998;18.164;2022-09-25T00:32:40;47.40;;;36.00;;
57333;SDS011;43165;50.998;18.164;2022-09-25T00:35:05;55.80;;;35.80;;
57333;SDS011;43165;50.998;18.164;2022-09-25T00:37:32;49.50;;;35.10;;
57333;SDS011;43165;50.998;18.164;2022-09-25T00:39:58;50.00;;;36.70;;
57333;SDS011;43165;50.998;18.164;2022-09-25T00:42:23;50.20;;;35.60;;
57333;SDS011;43165;50.998;18.164;2022-09-25T00:44:51;50.50;;;36.80;;
57333;SDS011;43165;50.998;18.164;2022-09-25T00:50:01;52.60;;;36.70;;
57333;SDS011;43165;50.998;18.164;2022-09-25T00:52:29;54.40;;;37.30;;
57333;SDS011;43165;50.998;18.164;2022-09-25T00:55:00;47.80;;;35.00;;
57333;SDS011;43165;50.998;18.164;2022-09-25T00:57:30;52.10;;;34.60;;
57333;SDS011;43165;50.998;18.164;2022-09-25T00:59:59;57.20;;;39.10;;
57333;SDS011;43165;50.998;18.164;2022-09-25T01:02:29;62.60;;;39.20;;
57333;SDS011;43165;50.998;18.164;2022-09-25T01:05:00;65.70;;;41.00;;
57333;SDS011;43165;50.998;18.164;2022-09-25T01:07:29;63.00;;;40.80;;
57333;SDS011;43165;50.998;18.164;2022-09-25T01:09:56;58.90;;;40.00;;
57333;SDS011;43165;50.998;18.164;2022-09-25T01:12:24;58.10;;;39.30;;
57333;SDS011;43165;50.998;18.164;2022-09-25T01:14:50;54.80;;;38.80;;
57333;SDS011;43165;50.998;18.164;2022-09-25T01:17:21;51.80;;;36.70;;
57333;SDS011;43165;50.998;18.164;2022-09-25T01:19:56;56.90;;;37.10;;
57333;SDS011;43165;50.998;18.164;2022-09-25T01:31:31;44.10;;;33.40;;
57333;SDS011;43165;50.998;18.164;2022-09-25T01:34:03;44.80;;;32.90;;
57333;SDS011;43165;50.998;18.164;2022-09-25T01:36:40;43.70;;;32.20;;
57333;SDS011;43165;50.998;18.164;2022-09-25T01:39:12;49.80;;;35.20;;
57333;SDS011;43165;50.998;18.164;2022-09-25T01:42:14;50.30;;;33.40;;
57333;SDS011;43165;50.998;18.164;2022-09-25T01:44:51;48.10;;;34.00;;
57333;SDS011;43165;50.998;18.164;2022-09-25T01:47:23;49.40;;;33.80;;
57333;SDS011;43165;50.998;18.164;2022-09-25T01:49:54;51.00;;;34.90;;
57333;SDS011;43165;50.998;18.164;2022-09-25T01:52:25;42.70;;;31.70;;
57333;SDS011;43165;50.998;18.164;2022-09-25T01:54:55;45.40;;;33.80;;
57333;SDS011;43165;50.998;18.164;2022-09-25T02:00:04;47.70;;;34.70;;
57333;SDS011;43165;50.998;18.164;2022-09-25T02:02:31;52.40;;;34.60;;
57333;SDS011;43165;50.998;18.164;2022-09-25T02:05:04;45.60;;;31.90;;
57333;SDS011;43165;50.998;18.164;2022-09-25T02:07:33;41.90;;;29.90;;
57333;SDS011;43165;50.998;18.164;2022-09-25T02:10:03;35.20;;;27.30;;
57333;SDS011;43165;50.998;18.164;2022-09-25T02:12:35;38.20;;;28.10;;
57333;SDS011;43165;50.998;18.164;2022-09-25T02:15:12;34.60;;;26.90;;
57333;SDS011;43165;50.998;18.164;2022-09-25T02:18:04;39.80;;;29.30;;
57333;SDS011;43165;50.998;18.164;2022-09-25T02:20:56;44.80;;;31.10;;
57333;SDS011;43165;50.998;18.164;2022-09-25T02:26:50;39.80;;;31.20;;
57333;SDS011;43165;50.998;18.164;2022-09-25T02:29:09;46.80;;;33.00;;
57333;SDS011;43165;50.998;18.164;2022-09-25T02:31:35;48.00;;;33.10;;
57333;SDS011;43165;50.998;18.164;2022-09-25T02:34:04;42.40;;;31.90;;
57333;SDS011;43165;50.998;18.164;2022-09-25T02:36:31;47.10;;;35.10;;
57333;SDS011;43165;50.998;18.164;2022-09-25T02:38:58;59.10;;;42.10;;
57333;SDS011;43165;50.998;18.164;2022-09-25T02:44:52;64.90;;;42.30;;
57333;SDS011;43165;50.998;18.164;2022-09-25T02:47:23;70.90;;;44.00;;
57333;SDS011;43165;50.998;18.164;2022-09-25T02:55:18;72.90;;;45.90;;
57333;SDS011;43165;50.998;18.164;2022-09-25T02:57:53;62.90;;;44.00;;
57333;SDS011;43165;50.998;18.164;2022-09-25T03:00:23;64.70;;;45.30;;
57333;SDS011;43165;50.998;18.164;2022-09-25T03:02:50;64.80;;;44.60;;
57333;SDS011;43165;50.998;18.164;2022-09-25T03:05:18;65.60;;;43.80;;
57333;SDS011;43165;50.998;18.164;2022-09-25T03:07:44;64.20;;;45.80;;
57333;SDS011;43165;50.998;18.164;2022-09-25T03:10:29;70.90;;;45.90;;
57333;SDS011;43165;50.998;18.164;2022-09-25T03:12:56;69.90;;;47.10;;
57333;SDS011;43165;50.998;18.164;2022-09-25T03:15:22;67.30;;;45.30;;
57333;SDS011;43165;50.998;18.164;2022-09-25T03:17:48;68.80;;;46.00;;
57333;SDS011;43165;50.998;18.164;2022-09-25T03:20:15;69.60;;;47.20;;
57333;SDS011;43165;50.998;18.164;2022-09-25T03:22:40;70.00;;;47.30;;
57333;SDS011;43165;50.998;18.164;2022-09-25T03:25:06;71.70;;;47.70;;
57333;SDS011;43165;50.998;18.164;2022-09-25T03:27:32;71.70;;;50.00;;
57333;SDS011;43165;50.998;18.164;2022-09-25T03:29:57;72.70;;;49.40;;
57333;SDS011;43165;50.998;18.164;2022-09-25T03:32:23;74.00;;;49.00;;
57333;SDS011;43165;50.998;18.164;2022-09-25T03:34:48;74.70;;;50.50;;
57333;SDS011;43165;50.998;18.164;2022-09-25T03:37:14;75.50;;;50.50;;
57333;SDS011;43165;50.998;18.164;2022-09-25T03:39:39;82.70;;;51.10;;
57333;SDS011;43165;50.998;18.164;2022-09-25T03:42:05;72.30;;;48.90;;
57333;SDS011;43165;50.998;18.164;2022-09-25T03:44:31;67.10;;;46.90;;
57333;SDS011;43165;50.998;18.164;2022-09-25T03:46:56;65.80;;;45.30;;
57333;SDS011;43165;50.998;18.164;2022-09-25T03:49:22;69.40;;;46.80;;
57333;SDS011;43165;50.998;18.164;2022-09-25T03:51:47;73.50;;;46.10;;
57333;SDS011;43165;50.998;18.164;2022-09-25T03:54:13;68.10;;;46.70;;
57333;SDS011;43165;50.998;18.164;2022-09-25T03:56:39;69.90;;;46.40;;
57333;SDS011;43165;50.998;18.164;2022-09-25T03:59:04;67.50;;;45.90;;
57333;SDS011;43165;50.998;18.164;2022-09-25T04:01:30;68.90;;;46.70;;
57333;SDS011;43165;50.998;18.164;2022-09-25T04:03:56;70.90;;;46.90;;
57333;SDS011;43165;50.998;18.164;2022-09-25T04:06:22;69.20;;;47.00;;
57333;SDS011;43165;50.998;18.164;2022-09-25T04:08:50;69.30;;;47.70;;
57333;SDS011;43165;50.998;18.164;2022-09-25T04:11:16;69.60;;;47.90;;
57333;SDS011;43165;50.998;18.164;2022-09-25T04:13:42;69.00;;;47.70;;
57333;SDS011;43165;50.998;18.164;2022-09-25T04:16:11;71.70;;;48.50;;
57333;SDS011;43165;50.998;18.164;2022-09-25T04:18:38;74.60;;;49.30;;
57333;SDS011;43165;50.998;18.164;2022-09-25T04:21:06;81.30;;;51.00;;
57333;SDS011;43165;50.998;18.164;2022-09-25T04:23:33;94.70;;;56.60;;
57333;SDS011;43165;50.998;18.164;2022-09-25T04:26:00;105.20;;;58.00;;
57333;SDS011;43165;50.998;18.164;2022-09-25T04:28:26;95.70;;;56.30;;
57333;SDS011;43165;50.998;18.164;2022-09-25T04:30:52;86.20;;;52.80;;
57333;SDS011;43165;50.998;18.164;2022-09-25T04:33:18;81.60;;;47.60;;
57333;SDS011;43165;50.998;18.164;2022-09-25T04:36:02;72.00;;;46.90;;
57333;SDS011;43165;50.998;18.164;2022-09-25T04:38:28;74.00;;;48.30;;
57333;SDS011;43165;50.998;18.164;2022-09-25T04:40:59;76.40;;;48.20;;
57333;SDS011;43165;50.998;18.164;2022-09-25T04:43:29;65.70;;;44.70;;
57333;SDS011;43165;50.998;18.164;2022-09-25T04:46:02;57.70;;;41.90;;
57333;SDS011;43165;50.998;18.164;2022-09-25T04:48:29;66.40;;;42.30;;
57333;SDS011;43165;50.998;18.164;2022-09-25T04:50:55;58.20;;;41.40;;
57333;SDS011;43165;50.998;18.164;2022-09-25T04:53:20;61.20;;;41.70;;
57333;SDS011;43165;50.998;18.164;2022-09-25T04:55:47;60.50;;;41.30;;
57333;SDS011;43165;50.998;18.164;2022-09-25T04:58:12;57.40;;;40.30;;
57333;SDS011;43165;50.998;18.164;2022-09-25T05:00:39;62.40;;;40.70;;
57333;SDS011;43165;50.998;18.164;2022-09-25T05:03:05;74.20;;;45.40;;
57333;SDS011;43165;50.998;18.164;2022-09-25T05:05:31;69.10;;;46.40;;
57333;SDS011;43165;50.998;18.164;2022-09-25T05:07:57;68.00;;;46.20;;
57333;SDS011;43165;50.998;18.164;2022-09-25T05:10:28;75.20;;;47.60;;
57333;SDS011;43165;50.998;18.164;2022-09-25T05:12:55;70.20;;;44.90;;
57333;SDS011;43165;50.998;18.164;2022-09-25T05:15:22;70.70;;;47.00;;
57333;SDS011;43165;50.998;18.164;2022-09-25T05:17:48;73.30;;;48.30;;
57333;SDS011;43165;50.998;18.164;2022-09-25T05:20:14;71.20;;;46.70;;
57333;SDS011;43165;50.998;18.164;2022-09-25T05:22:40;70.90;;;46.60;;
57333;SDS011;43165;50.998;18.164;2022-09-25T05:25:06;66.40;;;44.40;;
57333;SDS011;43165;50.998;18.164;2022-09-25T05:27:34;68.70;;;45.90;;
57333;SDS011;43165;50.998;18.164;2022-09-25T05:29:59;69.20;;;45.30;;
57333;SDS011;43165;50.998;18.164;2022-09-25T05:32:25;62.30;;;44.50;;
57333;SDS011;43165;50.998;18.164;2022-09-25T05:34:51;67.50;;;43.30;;
57333;SDS011;43165;50.998;18.164;2022-09-25T05:37:17;56.10;;;41.80;;
57333;SDS011;43165;50.998;18.164;2022-09-25T05:39:43;67.10;;;45.50;;
57333;SDS011;43165;50.998;18.164;2022-09-25T05:42:08;70.40;;;46.00;;
57333;SDS011;43165;50.998;18.164;2022-09-25T05:44:34;70.30;;;46.30;;
57333;SDS011;43165;50.998;18.164;2022-09-25T05:46:59;63.40;;;43.50;;
57333;SDS011;43165;50.998;18.164;2022-09-25T05:49:25;63.30;;;44.00;;
57333;SDS011;43165;50.998;18.164;2022-09-25T05:51:50;66.10;;;44.70;;
57333;SDS011;43165;50.998;18.164;2022-09-25T05:54:15;70.60;;;44.30;;
57333;SDS011;43165;50.998;18.164;2022-09-25T05:56:41;70.30;;;45.50;;
57333;SDS011;43165;50.998;18.164;2022-09-25T05:59:06;69.80;;;43.20;;
57333;SDS011;43165;50.998;18.164;2022-09-25T06:01:32;65.80;;;46.00;;
57333;SDS011;43165;50.998;18.164;2022-09-25T06:03:57;67.90;;;45.20;;
57333;SDS011;43165;50.998;18.164;2022-09-25T06:06:23;71.90;;;44.30;;
57333;SDS011;43165;50.998;18.164;2022-09-25T06:08:48;63.20;;;42.40;;
57333;SDS011;43165;50.998;18.164;2022-09-25T06:11:14;68.70;;;43.90;;
57333;SDS011;43165;50.998;18.164;2022-09-25T06:13:39;59.80;;;42.00;;
57333;SDS011;43165;50.998;18.164;2022-09-25T06:16:10;68.40;;;41.40;;
57333;SDS011;43165;50.998;18.164;2022-09-25T06:18:38;60.30;;;41.50;;
57333;SDS011;43165;50.998;18.164;2022-09-25T06:21:04;61.10;;;41.00;;
57333;SDS011;43165;50.998;18.164;2022-09-25T06:23:30;61.70;;;40.40;;
57333;SDS011;43165;50.998;18.164;2022-09-25T06:26:02;58.90;;;40.00;;
57333;SDS011;43165;50.998;18.164;2022-09-25T06:28:30;56.30;;;39.70;;
57333;SDS011;43165;50.998;18.164;2022-09-25T06:30:58;58.50;;;38.20;;
57333;SDS011;43165;50.998;18.164;2022-09-25T06:33:25;54.00;;;36.80;;
57333;SDS011;43165;50.998;18.164;2022-09-25T06:35:50;54.40;;;38.10;;
57333;SDS011;43165;50.998;18.164;2022-09-25T06:38:16;52.20;;;37.20;;
57333;SDS011;43165;50.998;18.164;2022-09-25T06:40:41;54.60;;;36.70;;
57333;SDS011;43165;50.998;18.164;2022-09-25T06:43:12;52.30;;;36.40;;
57333;SDS011;43165;50.998;18.164;2022-09-25T06:45:39;51.10;;;36.70;;
57333;SDS011;43165;50.998;18.164;2022-09-25T06:48:07;58.20;;;37.70;;
57333;SDS011;43165;50.998;18.164;2022-09-25T06:50:47;57.60;;;35.90;;
57333;SDS011;43165;50.998;18.164;2022-09-25T06:53:16;61.80;;;39.30;;
57333;SDS011;43165;50.998;18.164;2022-09-25T06:55:42;71.80;;;40.80;;
57333;SDS011;43165;50.998;18.164;2022-09-25T06:58:13;72.90;;;41.10;;
57333;SDS011;43165;50.998;18.164;2022-09-25T07:00:40;71.10;;;41.20;;
57333;SDS011;43165;50.998;18.164;2022-09-25T07:03:05;68.10;;;40.40;;
57333;SDS011;43165;50.998;18.164;2022-09-25T07:05:50;57.10;;;38.40;;
57333;SDS011;43165;50.998;18.164;2022-09-25T07:08:17;61.10;;;38.60;;
57333;SDS011;43165;50.998;18.164;2022-09-25T07:13:15;72.70;;;41.90;;
57333;SDS011;43165;50.998;18.164;2022-09-25T07:15:42;71.40;;;41.70;;
57333;SDS011;43165;50.998;18.164;2022-09-25T07:18:08;70.20;;;40.70;;
57333;SDS011;43165;50.998;18.164;2022-09-25T07:20:33;52.90;;;35.70;;
57333;SDS011;43165;50.998;18.164;2022-09-25T07:22:59;50.40;;;34.60;;
57333;SDS011;43165;50.998;18.164;2022-09-25T07:25:31;53.20;;;34.50;;
57333;SDS011;43165;50.998;18.164;2022-09-25T07:27:57;48.70;;;35.30;;
57333;SDS011;43165;50.998;18.164;2022-09-25T07:30:26;53.90;;;34.70;;
57333;SDS011;43165;50.998;18.164;2022-09-25T07:32:53;49.90;;;34.80;;
57333;SDS011;43165;50.998;18.164;2022-09-25T07:35:19;48.30;;;35.30;;
57333;SDS011;43165;50.998;18.164;2022-09-25T07:37:45;47.70;;;34.90;;
57333;SDS011;43165;50.998;18.164;2022-09-25T07:40:10;50.60;;;34.70;;
57333;SDS011;43165;50.998;18.164;2022-09-25T07:42:39;49.90;;;35.80;;
57333;SDS011;43165;50.998;18.164;2022-09-25T07:45:06;50.00;;;36.20;;
57333;SDS011;43165;50.998;18.164;2022-09-25T07:47:32;50.70;;;36.10;;
57333;SDS011;43165;50.998;18.164;2022-09-25T07:49:57;58.10;;;36.50;;
57333;SDS011;43165;50.998;18.164;2022-09-25T07:52:23;55.30;;;38.00;;
57333;SDS011;43165;50.998;18.164;2022-09-25T07:54:49;54.80;;;34.60;;
57333;SDS011;43165;50.998;18.164;2022-09-25T07:57:14;51.40;;;34.80;;
57333;SDS011;43165;50.998;18.164;2022-09-25T07:59:40;50.80;;;34.90;;
57333;SDS011;43165;50.998;18.164;2022-09-25T08:02:06;49.30;;;34.00;;
57333;SDS011;43165;50.998;18.164;2022-09-25T08:04:32;43.30;;;32.30;;
57333;SDS011;43165;50.998;18.164;2022-09-25T08:06:58;64.80;;;31.50;;
57333;SDS011;43165;50.998;18.164;2022-09-25T08:09:24;57.90;;;30.50;;
57333;SDS011;43165;50.998;18.164;2022-09-25T08:11:49;38.60;;;28.50;;
57333;SDS011;43165;50.998;18.164;2022-09-25T08:14:15;34.70;;;26.10;;
57333;SDS011;43165;50.998;18.164;2022-09-25T08:16:42;25.80;;;22.70;;
57333;SDS011;43165;50.998;18.164;2022-09-25T08:19:11;33.90;;;23.00;;
57333;SDS011;43165;50.998;18.164;2022-09-25T08:21:38;22.70;;;20.10;;
57333;SDS011;43165;50.998;18.164;2022-09-25T08:24:04;24.40;;;19.20;;
57333;SDS011;43165;50.998;18.164;2022-09-25T08:26:30;22.30;;;18.60;;
57333;SDS011;43165;50.998;18.164;2022-09-25T08:28:56;28.90;;;22.50;;
57333;SDS011;43165;50.998;18.164;2022-09-25T08:31:21;29.80;;;26.10;;
57333;SDS011;43165;50.998;18.164;2022-09-25T08:33:48;26.60;;;23.40;;
57333;SDS011;43165;50.998;18.164;2022-09-25T08:36:14;30.50;;;26.00;;
57333;SDS011;43165;50.998;18.164;2022-09-25T08:38:42;29.30;;;25.10;;
57333;SDS011;43165;50.998;18.164;2022-09-25T08:41:15;30.90;;;22.40;;
57333;SDS011;43165;50.998;18.164;2022-09-25T08:43:58;26.30;;;23.10;;
57333;SDS011;43165;50.998;18.164;2022-09-25T08:46:43;26.30;;;22.60;;
57333;SDS011;43165;50.998;18.164;2022-09-25T08:49:39;27.30;;;23.20;;
57333;SDS011;43165;50.998;18.164;2022-09-25T08:52:10;21.70;;;19.20;;
57333;SDS011;43165;50.998;18.164;2022-09-25T08:54:39;22.70;;;19.50;;
57333;SDS011;43165;50.998;18.164;2022-09-25T08:59:53;23.00;;;18.50;;
57333;SDS011;43165;50.998;18.164;2022-09-25T09:02:22;24.10;;;17.80;;
57333;SDS011;43165;50.998;18.164;2022-09-25T09:04:52;20.20;;;17.70;;
57333;SDS011;43165;50.998;18.164;2022-09-25T09:10:00;20.20;;;18.10;;
57333;SDS011;43165;50.998;18.164;2022-09-25T09:12:36;18.10;;;16.40;;
57333;SDS011;43165;50.998;18.164;2022-09-25T09:15:10;17.20;;;15.50;;
57333;SDS011;43165;50.998;18.164;2022-09-25T09:17:40;19.50;;;14.40;;
57333;SDS011;43165;50.998;18.164;2022-09-25T09:20:16;14.10;;;13.00;;
57333;SDS011;43165;50.998;18.164;2022-09-25T09:22:47;16.70;;;15.20;;
57333;SDS011;43165;50.998;18.164;2022-09-25T09:25:24;16.60;;;15.10;;
57333;SDS011;43165;50.998;18.164;2022-09-25T09:28:19;17.40;;;14.30;;
57333;SDS011;43165;50.998;18.164;2022-09-25T09:53:25;12.70;;;11.40;;
57333;SDS011;43165;50.998;18.164;2022-09-25T09:55:57;14.00;;;11.00;;
57333;SDS011;43165;50.998;18.164;2022-09-25T09:58:27;11.20;;;10.00;;
57333;SDS011;43165;50.998;18.164;2022-09-25T10:00:57;13.20;;;11.70;;
57333;SDS011;43165;50.998;18.164;2022-09-25T10:03:26;12.30;;;11.30;;
57333;SDS011;43165;50.998;18.164;2022-09-25T10:05:56;13.10;;;11.20;;
57333;SDS011;43165;50.998;18.164;2022-09-25T10:08:23;13.30;;;12.00;;
57333;SDS011;43165;50.998;18.164;2022-09-25T10:10:50;13.00;;;11.90;;
57333;SDS011;43165;50.998;18.164;2022-09-25T10:13:22;12.90;;;11.60;;
57333;SDS011;43165;50.998;18.164;2022-09-25T10:15:51;13.50;;;12.20;;
57333;SDS011;43165;50.998;18.164;2022-09-25T10:18:20;13.20;;;11.60;;
57333;SDS011;43165;50.998;18.164;2022-09-25T10:25:52;10.20;;;9.40;;
57333;SDS011;43165;50.998;18.164;2022-09-25T10:28:20;10.70;;;9.70;;
57333;SDS011;43165;50.998;18.164;2022-09-25T10:30:47;12.00;;;8.60;;
57333;SDS011;43165;50.998;18.164;2022-09-25T10:33:20;9.10;;;7.70;;
57333;SDS011;43165;50.998;18.164;2022-09-25T10:35:47;7.40;;;6.80;;
57333;SDS011;43165;50.998;18.164;2022-09-25T10:38:23;7.20;;;6.60;;
57333;SDS011;43165;50.998;18.164;2022-09-25T10:40:56;6.80;;;6.10;;
57333;SDS011;43165;50.998;18.164;2022-09-25T10:43:24;7.10;;;6.30;;
57333;SDS011;43165;50.998;18.164;2022-09-25T10:48:38;6.00;;;5.50;;
57333;SDS011;43165;50.998;18.164;2022-09-25T10:51:23;6.60;;;6.00;;
57333;SDS011;43165;50.998;18.164;2022-09-25T10:53:50;5.50;;;3.80;;
57333;SDS011;43165;50.998;18.164;2022-09-25T10:56:36;4.70;;;3.70;;
57333;SDS011;43165;50.998;18.164;2022-09-25T10:59:08;5.20;;;4.00;;
57333;SDS011;43165;50.998;18.164;2022-09-25T11:01:39;4.60;;;4.20;;
57333;SDS011;43165;50.998;18.164;2022-09-25T11:04:15;5.60;;;3.90;;
57333;SDS011;43165;50.998;18.164;2022-09-25T11:06:44;6.70;;;3.70;;
57333;SDS011;43165;50.998;18.164;2022-09-25T11:09:12;6.10;;;5.40;;
57333;SDS011;43165;50.998;18.164;2022-09-25T11:11:39;4.40;;;4.10;;
57333;SDS011;43165;50.998;18.164;2022-09-25T11:14:19;5.50;;;4.00;;
57333;SDS011;43165;50.998;18.164;2022-09-25T11:16:56;8.10;;;5.00;;
57333;SDS011;43165;50.998;18.164;2022-09-25T11:27:38;7.50;;;5.70;;
57333;SDS011;43165;50.998;18.164;2022-09-25T11:41:09;5.30;;;4.80;;
57333;SDS011;43165;50.998;18.164;2022-09-25T11:49:33;5.80;;;5.30;;
57333;SDS011;43165;50.998;18.164;2022-09-25T11:52:04;5.60;;;4.90;;
57333;SDS011;43165;50.998;18.164;2022-09-25T12:14:31;5.70;;;5.10;;
57333;SDS011;43165;50.998;18.164;2022-09-25T12:17:35;5.10;;;4.70;;
57333;SDS011;43165;50.998;18.164;2022-09-25T12:26:05;8.80;;;4.50;;
57333;SDS011;43165;50.998;18.164;2022-09-25T12:31:34;6.90;;;6.20;;
57333;SDS011;43165;50.998;18.164;2022-09-25T12:39:49;7.20;;;6.40;;
57333;SDS011;43165;50.998;18.164;2022-09-25T12:42:20;9.80;;;8.90;;
57333;SDS011;43165;50.998;18.164;2022-09-25T12:44:56;7.40;;;6.30;;
57333;SDS011;43165;50.998;18.164;2022-09-25T12:47:59;7.00;;;6.30;;
57333;SDS011;43165;50.998;18.164;2022-09-25T12:50:30;6.70;;;6.10;;
57333;SDS011;43165;50.998;18.164;2022-09-25T12:55:51;8.70;;;5.90;;
57333;SDS011;43165;50.998;18.164;2022-09-25T12:58:22;8.30;;;5.90;;
57333;SDS011;43165;50.998;18.164;2022-09-25T13:01:10;10.60;;;6.40;;
57333;SDS011;43165;50.998;18.164;2022-09-25T13:06:48;7.40;;;5.50;;
57333;SDS011;43165;50.998;18.164;2022-09-25T13:11:54;7.30;;;5.50;;
57333;SDS011;43165;50.998;18.164;2022-09-25T13:14:30;8.90;;;6.20;;
57333;SDS011;43165;50.998;18.164;2022-09-25T13:16:59;8.70;;;6.20;;
57333;SDS011;43165;50.998;18.164;2022-09-25T13:19:26;6.40;;;5.70;;
57333;SDS011;43165;50.998;18.164;2022-09-25T13:21:57;8.70;;;5.60;;
57333;SDS011;43165;50.998;18.164;2022-09-25T13:24:24;6.70;;;6.10;;
57333;SDS011;43165;50.998;18.164;2022-09-25T13:26:50;6.20;;;5.60;;
57333;SDS011;43165;50.998;18.164;2022-09-25T13:31:47;5.90;;;4.80;;
57333;SDS011;43165;50.998;18.164;2022-09-25T13:34:14;10.00;;;5.20;;
57333;SDS011;43165;50.998;18.164;2022-09-25T13:36:51;8.30;;;5.20;;
57333;SDS011;43165;50.998;18.164;2022-09-25T13:39:29;6.40;;;5.40;;
57333;SDS011;43165;50.998;18.164;2022-09-25T13:50:25;12.70;;;6.10;;
57333;SDS011;43165;50.998;18.164;2022-09-25T14:01:30;8.80;;;5.40;;
57333;SDS011;43165;50.998;18.164;2022-09-25T14:03:58;6.10;;;5.60;;
57333;SDS011;43165;50.998;18.164;2022-09-25T14:06:25;6.50;;;5.70;;
57333;SDS011;43165;50.998;18.164;2022-09-25T14:08:53;5.50;;;5.00;;
57333;SDS011;43165;50.998;18.164;2022-09-25T14:11:25;15.50;;;11.70;;
57333;SDS011;43165;50.998;18.164;2022-09-25T14:13:54;13.70;;;8.40;;
57333;SDS011;43165;50.998;18.164;2022-09-25T14:16:23;17.90;;;15.80;;
57333;SDS011;43165;50.998;18.164;2022-09-25T14:18:51;8.30;;;7.60;;
57333;SDS011;43165;50.998;18.164;2022-09-25T14:21:18;7.20;;;6.10;;
57333;SDS011;43165;50.998;18.164;2022-09-25T14:23:49;7.90;;;6.50;;
57333;SDS011;43165;50.998;18.164;2022-09-25T14:26:17;7.60;;;6.90;;
57333;SDS011;43165;50.998;18.164;2022-09-25T14:28:47;7.60;;;6.60;;
57333;SDS011;43165;50.998;18.164;2022-09-25T14:42:11;10.10;;;6.10;;
57333;SDS011;43165;50.998;18.164;2022-09-25T14:45:15;6.90;;;6.00;;
57333;SDS011;43165;50.998;18.164;2022-09-25T14:48:12;9.60;;;6.50;;
57333;SDS011;43165;50.998;18.164;2022-09-25T14:50:44;11.50;;;7.30;;
57333;SDS011;43165;50.998;18.164;2022-09-25T14:53:15;11.10;;;10.00;;
57333;SDS011;43165;50.998;18.164;2022-09-25T14:55:53;10.40;;;9.10;;
57333;SDS011;43165;50.998;18.164;2022-09-25T14:58:21;11.70;;;8.20;;
57333;SDS011;43165;50.998;18.164;2022-09-25T15:00:51;10.40;;;7.70;;
57333;SDS011;43165;50.998;18.164;2022-09-25T15:03:21;10.00;;;9.00;;
57333;SDS011;43165;50.998;18.164;2022-09-25T15:05:50;11.70;;;8.80;;
57333;SDS011;43165;50.998;18.164;2022-09-25T15:08:20;10.50;;;9.70;;
57333;SDS011;43165;50.998;18.164;2022-09-25T15:10:47;11.10;;;10.00;;
57333;SDS011;43165;50.998;18.164;2022-09-25T15:13:14;13.40;;;10.30;;
57333;SDS011;43165;50.998;18.164;2022-09-25T15:15:42;18.00;;;10.90;;
57333;SDS011;43165;50.998;18.164;2022-09-25T15:18:54;11.50;;;9.80;;
57333;SDS011;43165;50.998;18.164;2022-09-25T15:21:30;13.80;;;9.60;;
57333;SDS011;43165;50.998;18.164;2022-09-25T15:26:23;10.40;;;9.30;;
57333;SDS011;43165;50.998;18.164;2022-09-25T15:28:52;12.90;;;7.90;;
57333;SDS011;43165;50.998;18.164;2022-09-25T15:31:18;9.20;;;8.50;;
57333;SDS011;43165;50.998;18.164;2022-09-25T15:33:43;9.60;;;8.30;;
57333;SDS011;43165;50.998;18.164;2022-09-25T15:36:17;13.50;;;8.00;;
57333;SDS011;43165;50.998;18.164;2022-09-25T15:38:50;8.60;;;7.70;;
57333;SDS011;43165;50.998;18.164;2022-09-25T15:41:20;8.50;;;6.90;;
57333;SDS011;43165;50.998;18.164;2022-09-25T15:43:47;8.90;;;6.80;;
57333;SDS011;43165;50.998;18.164;2022-09-25T15:48:53;7.60;;;6.90;;
57333;SDS011;43165;50.998;18.164;2022-09-25T15:51:22;8.50;;;6.90;;
57333;SDS011;43165;50.998;18.164;2022-09-25T15:53:55;7.60;;;6.80;;
57333;SDS011;43165;50.998;18.164;2022-09-25T15:56:23;8.00;;;7.40;;
57333;SDS011;43165;50.998;18.164;2022-09-25T15:59:00;10.70;;;7.60;;
57333;SDS011;43165;50.998;18.164;2022-09-25T16:01:31;13.00;;;9.10;;
57333;SDS011;43165;50.998;18.164;2022-09-25T16:04:20;18.50;;;13.30;;
57333;SDS011;43165;50.998;18.164;2022-09-25T16:09:59;30.10;;;17.80;;
57333;SDS011;43165;50.998;18.164;2022-09-25T16:17:52;22.30;;;13.60;;
57333;SDS011;43165;50.998;18.164;2022-09-25T16:23:01;12.90;;;11.30;;
57333;SDS011;43165;50.998;18.164;2022-09-25T16:25:29;12.80;;;11.20;;
57333;SDS011;43165;50.998;18.164;2022-09-25T16:28:03;13.50;;;11.70;;
57333;SDS011;43165;50.998;18.164;2022-09-25T16:30:31;21.80;;;10.60;;
57333;SDS011;43165;50.998;18.164;2022-09-25T16:32:58;12.80;;;9.80;;
57333;SDS011;43165;50.998;18.164;2022-09-25T16:38:00;16.30;;;11.40;;
57333;SDS011;43165;50.998;18.164;2022-09-25T16:40:27;12.70;;;11.50;;
57333;SDS011;43165;50.998;18.164;2022-09-25T16:42:57;16.90;;;12.00;;
57333;SDS011;43165;50.998;18.164;2022-09-25T16:45:28;15.80;;;13.20;;
57333;SDS011;43165;50.998;18.164;2022-09-25T16:47:57;19.80;;;15.60;;
57333;SDS011;43165;50.998;18.164;2022-09-25T16:50:48;19.20;;;14.70;;
57333;SDS011;43165;50.998;18.164;2022-09-25T16:53:13;31.90;;;18.70;;
57333;SDS011;43165;50.998;18.164;2022-09-25T16:55:46;23.50;;;17.90;;
57333;SDS011;43165;50.998;18.164;2022-09-25T16:58:17;22.30;;;14.80;;
57333;SDS011;43165;50.998;18.164;2022-09-25T17:00:44;33.80;;;19.30;;
57333;SDS011;43165;50.998;18.164;2022-09-25T17:03:10;59.50;;;34.80;;
57333;SDS011;43165;50.998;18.164;2022-09-25T17:05:36;59.60;;;36.70;;
57333;SDS011;43165;50.998;18.164;2022-09-25T17:08:14;72.20;;;43.80;;
57333;SDS011;43165;50.998;18.164;2022-09-25T17:10:44;29.20;;;18.60;;
57333;SDS011;43165;50.998;18.164;2022-09-25T17:13:12;18.80;;;15.10;;
57333;SDS011;43165;50.998;18.164;2022-09-25T17:15:39;14.80;;;13.40;;
57333;SDS011;43165;50.998;18.164;2022-09-25T17:18:08;21.60;;;18.00;;
57333;SDS011;43165;50.998;18.164;2022-09-25T17:20:45;19.20;;;17.00;;
57333;SDS011;43165;50.998;18.164;2022-09-25T17:23:15;18.70;;;16.70;;
57333;SDS011;43165;50.998;18.164;2022-09-25T17:25:49;25.00;;;19.40;;
57333;SDS011;43165;50.998;18.164;2022-09-25T17:28:17;23.10;;;18.90;;
57333;SDS011;43165;50.998;18.164;2022-09-25T17:30:43;22.50;;;17.10;;